• Join FlightAware (Why Join?)
  • Login
  • US Flag 
02:34PM EDT


 

Airport Tracker/Info


-or-


 

Live Flight TrackerFlight Track Log ✈ SWA920 ✈ 30-Apr-2013 ✈ KMDW - KBNA

Flight Track Log - Related Links

Times and Time Zones

All times are in EDT time to prevent confusion due to time zone crossing. See the SWA920 flight status page for this flight to view local times or setup timezone preferences in your user account.

Time Position Orientation Groundspeed Altitude Reporting Facility
EDT Latitude Longitude Course Direction KTS MPH feet Rate Location/Type
03:56PM 41.7483 -87.7928 218° Southwest 179 206 3,100  Level Chicago Center
03:57PM 41.7011 -87.8428 218° Southwest 205 236 5,100 1,860 Climbing Chicago Center
03:58PM 41.6444 -87.8944 214° Southwest 231 266 7,000 3,000 Climbing Chicago Center
03:59PM 41.5706 -87.8881 176° South 266 306 11,300 4,080 Climbing Chicago Center
04:00PM 41.4747 -87.8819 177° South 286 329 15,400 3,120 Climbing Chicago Center
04:01PM 41.3775 -87.8792 179° South 346 398 17,800 2,520 Climbing Chicago Center
04:02PM 41.2731 -87.8906 185° South 369 425 20,700 2,760 Climbing Chicago Center
04:03PM 41.1614 -87.8903 180° South 394 453 23,600 2,700 Climbing Chicago Center
04:04PM 41.0483 -87.8861 178° South 405 466 26,400 2,280 Climbing Chicago Center
04:06PM 40.9317 -87.8833 179° South 414 476 28,400 2,160 Climbing Chicago Center
04:07PM 40.8114 -87.8661 174° South 432 497 31,000 2,220 Climbing Chicago Center
04:08PM 40.6722 -87.8406 172° South 424 488 33,000 960 Climbing Chicago Center
04:09PM 40.5553 -87.8189 172° South 425 489 33,000  Level Chicago Center
04:10PM 40.4392 -87.7967 172° South 425 489 33,000  Level Chicago Center
04:11PM 40.3125 -87.7739 172° South 426 490 33,000  Level Indianapolis Center
04:12PM 40.1936 -87.7531 172° South 428 493 33,000  Level Indianapolis Center
04:13PM 40.0753 -87.7317 172° South 427 491 33,000  Level Indianapolis Center
04:14PM 39.9569 -87.7097 172° South 428 493 33,000  Level Indianapolis Center
04:15PM 39.8178 -87.6856 172° South 430 495 33,000  Level Indianapolis Center
04:16PM 39.6989 -87.6636 172° South 431 496 33,000  Level Indianapolis Center
04:17PM 39.5800 -87.6422 172° South 430 495 33,000  Level Indianapolis Center
04:18PM 39.4603 -87.6206 172° South 431 496 33,000  Level Indianapolis Center
04:19PM 39.3403 -87.5992 172° South 434 499 33,000  Level Indianapolis Center
04:20PM 39.2200 -87.5775 172° South 434 499 33,000  Level Indianapolis Center
04:21PM 39.1003 -87.5569 172° South 434 499 33,000  Level Indianapolis Center
04:22PM 38.9561 -87.5300 172° South 435 501 33,000  Level Indianapolis Center
04:23PM 38.8358 -87.5103 173° South 436 502 33,000  Level Indianapolis Center
04:24PM 38.7161 -87.4892 172° South 434 499 33,000  Level Indianapolis Center
04:25PM 38.5972 -87.4681 172° South 432 497 33,000 -360 Level Indianapolis Center
04:26PM 38.4792 -87.4467 172° South 431 496 32,300 -840 Descending Indianapolis Center
04:27PM 38.3664 -87.3975 161° South 433 498 31,300 -660 Descending Indianapolis Center
04:28PM 38.2314 -87.3458 163° South 427 491 31,000 -420 Descending Indianapolis Center
04:29PM 38.1144 -87.3356 176° South 425 489 30,500 -780 Descending Indianapolis Center
04:30PM 37.9986 -87.3231 175° South 421 484 29,500 -1,260 Descending Indianapolis Center
04:31PM 37.8825 -87.3114 175° South 419 482 27,900 -1,560 Descending Indianapolis Center
04:32PM 37.7611 -87.2989 175° South 419 482 26,300 -1,620 Descending Indianapolis Center
04:33PM 37.6472 -87.2858 175° South 408 470 24,600 -1,620 Descending Indianapolis Center
04:34PM 37.5167 -87.2731 176° South 397 457 23,000 -840 Descending Indianapolis Center
04:35PM 37.4058 -87.2631 176° South 402 463 23,000 -60 Level Memphis Center
04:36PM 37.3094 -87.2433 171° South 402 463 22,900 -600 Descending Memphis Center
04:37PM 37.1983 -87.2111 167° South 407 468 21,800 -1,500 Descending Memphis Center
04:38PM 37.1481 -87.2003 170° South 398 458 20,900 -1,920 Descending Memphis Center
04:38PM 37.0953 -87.1789 162° South 402 463 19,900 -1,980 Descending Memphis Center
04:39PM 37.0472 -87.1706 172° South 387 445 18,900 -2,100 Descending Memphis Center
04:39PM 36.9925 -87.1492 163° South 385 443 17,800 -2,220 Descending Memphis Center
04:40PM 36.9400 -87.1383 171° South 370 426 16,700 -2,520 Descending Memphis Center
04:41PM 36.8622 -87.1131 165° South 360 414 14,900 -2,040 Descending Memphis Center
04:41PM 36.7992 -87.0869 162° South 360 414 13,400 -1,920 Descending Memphis Center
04:42PM 36.7058 -87.0314 154° Southeast 348 400 11,400 -1,680 Descending Memphis Center
04:43PM 36.6253 -86.9803 153° Southeast 338 389 10,100 -1,320 Descending Memphis Center
04:44PM 36.5614 -86.9261 146° Southeast 305 351 8,800 -1,500 Descending Memphis Center
04:45PM 36.4972 -86.8722 146° Southeast 285 328 7,200 -1,500 Descending Memphis Center
04:46PM 36.4333 -86.8206 147° Southeast 285 328 5,900 -1,320 Descending Memphis Center
04:47PM 36.3714 -86.7692 146° Southeast 280 322 4,600 -1,380 Descending Memphis Center
04:48PM 36.3158 -86.7253 148° Southeast 280 322 3,200 -1,080 Descending Memphis Center
04:49PM 36.2581 -86.6764 146° Southeast 267 307 2,500 -600 Descending Memphis Center
04:50PM 36.2111 -86.6400 148° Southeast 227 261 2,100 -600 Descending Memphis Center
04:51PM 36.1697 -86.6469 188° South 156 180 1,300 -720 Descending Memphis Center
04:52PM 36.1367 -86.6589 196° South 145 167 700 -600 Descending Memphis Center
04:54PM 36.1167 -86.6667 208° Southwest  Level FlightAware Approximate
05:01PM 36.1245 -86.6782 208° Southwest  Level Estimated
05:02PM 36.1245 -86.6782 208° Southwest  Level Estimated
05:03PM 36.1245 -86.6782 208° Southwest  Level Estimated
05:04PM 36.1245 -86.6782 208° Southwest  Level Estimated
05:05PM 36.1245 -86.6782 208° Southwest  Level Estimated
05:06PM 36.1245 -86.6782 208° Southwest  Level Estimated
05:07PM 36.1245 -86.6782 208° Southwest  Level Estimated
05:08PM 36.1245 -86.6782 208° Southwest  Level Estimated
05:09PM 36.1245 -86.6782 208° Southwest  Level Estimated